Meteo Giornale » Osservazioni meteo Italia » Cervia

ore: 17:55 - Osservazioni Meteo Cervia
Lat. 44° 13' N Lon. 12° 18' E Alt. 6 metri s.l.m.

sereno Europe/Rome

14 °C

Sereno

Temp. 24 Ore

13 °C

18 °C

Nord

5.5 Km/h

Dew point 12 °C

Umidità 87 %

Visibilità  10 Km

Il sole sorge alle ore 06:40

Il sole tramonta alle ore 17:09

Data e Ora Cielo e Fenomeni T °C DP °C Um. % Pres. hPa Vis. km Vento km/h
Oggi h: 17:55 sereno Sereno 14 12 87 1012 10 N 5.5
Oggi h: 16:55 sereno Sereno 15 12 82 1011 10 N 3.7
Oggi h: 15:55 sereno Sereno 16 12 77 1010 10 N 5.5
Oggi h: 14:55 poco_nuvoloso Poco Nuvoloso 16 12 77 1010 10 N 11.1
Oggi h: 13:55 poco_nuvoloso Poco Nuvoloso 16 12 77 1010 10 NE 14.8
Oggi h: 12:55 poco_nuvoloso Poco Nuvoloso 16 13 82 1010 10 NE 18.5
Oggi h: 11:55 poco_nuvoloso Poco Nuvoloso 18 12 67 1009 10 NO 7.4
Oggi h: 10:55 sereno Sereno 18 10 59 1009 10 O 18.5
Oggi h: 09:55 sereno Sereno 16 10 67 1008 10 N 3.7
Oggi h: 08:55 sereno Sereno 13 11 87 1007 10 E 7.4
Oggi h: 07:55 sereno Sereno 13 10 81 1007 10 O/SO 7.4
Oggi h: 06:55 nuvoloso Nuvoloso 14 12 87 1006 10 S/SO 13
Oggi h: 05:55 nuvoloso Nuvoloso 14 11 82 1006 10 SO 14.8
Oggi h: 04:55 nuvoloso Nuvoloso 15 10 72 1005 10 SO 11.1
Oggi h: 03:55 coperto_pioggia Pioggia Debole 15 11 76 1005 10 SO 18.5
Oggi h: 02:55 coperto_pioggia Pioggia Debole 14 13 93 1005 10 N 3.7
Oggi h: 01:55 coperto_pioggia Pioggia Debole 14 13 93 1005 10 N 5.5
Oggi h: 00:55 coperto_pioggia Pioggia Debole 14 13 93 1004 10 N 3.7
Ieri h: 23:55 nuvoloso Nuvoloso 16 14 87 1005 10 O/SO 9.3
Ieri h: 22:55 nuvoloso Nuvoloso 18 14 77 1005 10 S/SE 16.7
Ieri h: 20:55 nuvoloso Nuvoloso 18 14 77 1005 10 SE 27.8
Ieri h: 19:55 sereno Sereno 18 14 77 1006 10 SE 24
Ieri h: 18:55 sereno Sereno 18 14 77 1006 10 SE 24